createdAt,value
2023-05-05T00:01:25.837Z,9.00
2023-05-05T00:03:52.645Z,8.96
2023-05-05T00:06:19.798Z,9.08
2023-05-05T00:08:47.039Z,8.88
2023-05-05T00:11:13.746Z,9.09
2023-05-05T00:13:40.402Z,8.98
2023-05-05T00:16:07.436Z,9.19
2023-05-05T00:18:34.256Z,9.26
2023-05-05T00:21:01.080Z,9.23
2023-05-05T00:23:27.926Z,9.03
2023-05-05T00:25:54.674Z,8.76
2023-05-05T00:28:22.029Z,8.98
2023-05-05T00:30:48.935Z,8.83
2023-05-05T00:33:15.843Z,8.81
2023-05-05T00:35:42.596Z,9.03
2023-05-05T00:38:09.574Z,8.91
2023-05-05T00:40:37.352Z,8.78
2023-05-05T00:43:04.242Z,8.96
2023-05-05T00:45:31.176Z,9.05
2023-05-05T00:47:59.529Z,8.93
2023-05-05T00:50:29.197Z,9.18
2023-05-05T00:53:04.457Z,9.22
2023-05-05T00:55:32.324Z,9.00
2023-05-05T00:58:00.468Z,9.10
2023-05-05T01:00:28.510Z,8.80
2023-05-05T01:02:55.465Z,8.98
2023-05-05T01:05:23.714Z,8.67
2023-05-05T01:08:30.609Z,8.98
2023-05-05T01:11:12.139Z,9.00
2023-05-05T01:14:14.671Z,9.12
2023-05-05T01:16:53.721Z,8.89
2023-05-05T01:19:42.341Z,9.06
2023-05-05T01:22:12.970Z,8.84
2023-05-05T01:24:52.371Z,9.01
2023-05-05T01:27:45.531Z,9.09
2023-05-05T01:30:24.509Z,9.04
2023-05-05T01:32:55.423Z,8.76
2023-05-05T01:35:38.093Z,9.01
2023-05-05T01:38:22.569Z,8.93
2023-05-05T01:40:59.945Z,8.77
2023-05-05T01:43:30.843Z,8.93
2023-05-05T01:45:59.422Z,8.95
2023-05-05T01:48:26.529Z,8.95
2023-05-05T01:50:54.265Z,9.16
2023-05-05T01:53:23.449Z,9.17
2023-05-05T01:55:51.242Z,9.09
2023-05-05T01:58:18.912Z,8.73
2023-05-05T02:00:47.176Z,8.94
2023-05-05T02:03:15.948Z,8.86
2023-05-05T02:05:44.649Z,8.86
2023-05-05T02:08:12.281Z,8.67
2023-05-05T02:10:42.978Z,8.92
2023-05-05T02:13:12.710Z,8.83
2023-05-05T02:15:40.710Z,8.59
2023-05-05T02:18:07.818Z,8.66
2023-05-05T02:20:37.521Z,8.68
2023-05-05T02:23:06.481Z,8.87
2023-05-05T02:25:40.412Z,8.73
2023-05-05T02:28:15.545Z,8.50
2023-05-05T02:30:43.944Z,8.72
2023-05-05T02:33:14.855Z,8.71
2023-05-05T02:35:43.179Z,8.62
2023-05-05T02:38:17.396Z,8.74
2023-05-05T02:40:46.774Z,8.65
2023-05-05T02:43:18.230Z,8.41
2023-05-05T02:45:45.227Z,8.53
2023-05-05T02:48:13.180Z,8.66
2023-05-05T02:50:40.001Z,8.53
2023-05-05T02:53:07.066Z,8.48
2023-05-05T02:55:48.194Z,8.65
2023-05-05T02:58:21.832Z,8.84
2023-05-05T03:01:16.273Z,9.06
2023-05-05T03:04:08.765Z,8.77
2023-05-05T03:06:41.084Z,9.05
2023-05-05T03:09:19.261Z,8.89
2023-05-05T03:11:57.891Z,8.92
2023-05-05T03:14:27.287Z,8.72
2023-05-05T03:16:56.810Z,8.92
2023-05-05T03:19:24.797Z,9.11
2023-05-05T03:21:52.624Z,9.14
2023-05-05T03:24:20.572Z,9.17
2023-05-05T03:26:48.957Z,9.17
2023-05-05T03:29:16.267Z,8.93
2023-05-05T03:31:43.110Z,9.06
2023-05-05T03:34:10.043Z,8.96
2023-05-05T03:36:37.004Z,9.17
2023-05-05T03:39:03.812Z,8.72
2023-05-05T03:41:30.549Z,8.73
2023-05-05T03:43:57.228Z,8.61
2023-05-05T03:46:23.891Z,8.98
2023-05-05T03:48:51.636Z,8.86
2023-05-05T03:51:18.531Z,8.71
2023-05-05T03:53:45.189Z,8.88
2023-05-05T03:56:12.007Z,8.72
2023-05-05T03:58:38.674Z,8.74
2023-05-05T04:01:05.356Z,8.88
2023-05-05T04:03:32.629Z,9.03
2023-05-05T04:05:59.927Z,8.97
2023-05-05T04:08:26.687Z,8.96
2023-05-05T04:10:53.452Z,8.80
2023-05-05T04:13:20.318Z,8.86
2023-05-05T04:15:47.309Z,8.84
2023-05-05T04:18:14.227Z,8.96
2023-05-05T04:20:41.181Z,8.91
2023-05-05T04:23:07.885Z,8.73
2023-05-05T04:25:34.620Z,8.89
2023-05-05T04:28:01.684Z,8.92
2023-05-05T04:30:28.571Z,8.93
2023-05-05T04:32:55.557Z,9.03
2023-05-05T04:35:22.617Z,9.12
2023-05-05T04:37:49.464Z,9.18
2023-05-05T04:40:16.286Z,9.16
2023-05-05T04:42:43.011Z,9.14
2023-05-05T04:45:10.313Z,9.19
2023-05-05T04:47:39.257Z,9.17
2023-05-05T04:50:07.402Z,9.43
2023-05-05T04:52:34.362Z,9.18
2023-05-05T04:55:01.347Z,9.47
2023-05-05T04:57:29.609Z,9.21
2023-05-05T04:59:56.403Z,9.19
2023-05-05T05:02:23.396Z,9.08
2023-05-05T05:04:50.190Z,9.25
2023-05-05T05:07:16.856Z,8.98
2023-05-05T05:09:43.657Z,9.20
2023-05-05T05:12:10.555Z,9.15
2023-05-05T05:14:40.455Z,9.26
2023-05-05T05:17:07.259Z,9.47
2023-05-05T05:19:33.962Z,9.12
2023-05-05T05:22:00.738Z,9.17
2023-05-05T05:24:27.891Z,9.52
2023-05-05T05:26:54.602Z,9.11
2023-05-05T05:29:21.338Z,9.60
2023-05-05T05:31:48.179Z,9.56
2023-05-05T05:34:15.021Z,9.62
2023-05-05T05:36:41.743Z,9.62
2023-05-05T05:39:17.412Z,9.64
2023-05-05T05:41:44.140Z,9.73
2023-05-05T05:44:11.012Z,9.50
2023-05-05T05:46:37.953Z,9.61
2023-05-05T05:49:04.715Z,9.59
2023-05-05T05:51:31.685Z,9.43
2023-05-05T05:53:58.983Z,9.51
2023-05-05T05:56:25.731Z,9.60
2023-05-05T05:58:52.791Z,9.75
2023-05-05T06:01:19.703Z,9.64
2023-05-05T06:03:46.904Z,9.69
2023-05-05T06:06:13.729Z,9.82
2023-05-05T06:08:40.542Z,9.66
2023-05-05T06:11:07.286Z,9.62
2023-05-05T06:13:34.337Z,9.50
2023-05-05T06:16:01.355Z,9.60
2023-05-05T06:18:28.185Z,9.57
2023-05-05T06:20:54.959Z,9.61
2023-05-05T06:23:22.210Z,9.48
2023-05-05T06:25:48.993Z,9.60
2023-05-05T06:28:16.328Z,9.83
2023-05-05T06:30:43.144Z,9.60
2023-05-05T06:33:09.896Z,9.90
2023-05-05T06:35:36.623Z,10.06
2023-05-05T06:38:03.351Z,10.01
2023-05-05T06:40:30.086Z,10.11
2023-05-05T06:42:57.096Z,10.45
2023-05-05T06:45:23.827Z,10.29
2023-05-05T06:47:50.559Z,10.51
2023-05-05T06:50:17.245Z,10.50
2023-05-05T06:52:44.058Z,10.61
2023-05-05T06:55:10.761Z,10.63
2023-05-05T06:57:37.407Z,11.14
2023-05-05T07:00:06.063Z,11.62
2023-05-05T07:02:33.823Z,11.55
2023-05-05T07:05:00.588Z,11.81
2023-05-05T07:07:27.321Z,12.01
2023-05-05T07:09:53.956Z,11.61
2023-05-05T07:12:20.694Z,11.43
2023-05-05T07:14:47.652Z,11.38
2023-05-05T07:17:14.456Z,11.62
2023-05-05T07:19:41.329Z,11.41
2023-05-05T07:22:08.062Z,11.27
2023-05-05T07:24:34.790Z,11.08
2023-05-05T07:27:01.822Z,11.12
2023-05-05T07:29:28.790Z,10.93
2023-05-05T07:31:55.652Z,11.19
2023-05-05T07:34:22.397Z,10.96
2023-05-05T07:36:49.110Z,10.89
2023-05-05T07:39:15.951Z,11.21
2023-05-05T07:41:43.468Z,11.15
2023-05-05T07:44:10.481Z,10.82
2023-05-05T07:46:37.382Z,10.74
2023-05-05T07:49:04.191Z,10.67
2023-05-05T07:51:33.282Z,10.74
2023-05-05T07:54:01.234Z,10.61
2023-05-05T07:56:27.988Z,10.41
2023-05-05T07:58:55.369Z,10.63
2023-05-05T08:01:22.348Z,10.25
2023-05-05T08:03:49.114Z,10.12
2023-05-05T08:06:22.384Z,10.29
2023-05-05T08:08:49.670Z,10.26
2023-05-05T08:11:17.117Z,10.39
2023-05-05T08:13:44.283Z,9.96
2023-05-05T08:16:11.332Z,10.19
2023-05-05T08:18:38.629Z,9.72
2023-05-05T08:21:06.435Z,9.99
2023-05-05T08:23:34.420Z,10.19
2023-05-05T08:26:02.350Z,10.33
2023-05-05T08:28:30.166Z,10.37
2023-05-05T08:30:56.811Z,9.95
2023-05-05T08:33:23.474Z,10.21
2023-05-05T08:35:50.256Z,10.39
2023-05-05T08:38:19.162Z,10.20
2023-05-05T08:40:46.015Z,10.01
2023-05-05T08:43:12.891Z,10.21
2023-05-05T08:45:43.016Z,9.95
2023-05-05T08:48:10.721Z,10.02
2023-05-05T08:50:39.643Z,10.00
2023-05-05T08:53:17.478Z,10.18
2023-05-05T08:55:56.830Z,10.01
2023-05-05T08:58:25.553Z,9.93
2023-05-05T09:00:54.029Z,10.16
2023-05-05T09:03:21.634Z,10.06
2023-05-05T09:05:48.949Z,9.82
2023-05-05T09:08:16.311Z,9.73
2023-05-05T09:10:44.908Z,10.12
2023-05-05T09:13:11.791Z,10.08
2023-05-05T09:15:39.259Z,10.10
2023-05-05T09:18:09.253Z,10.17
2023-05-05T09:20:37.929Z,9.99
2023-05-05T09:23:18.883Z,9.89
2023-05-05T09:25:48.598Z,9.71
2023-05-05T09:28:17.219Z,9.64
2023-05-05T09:30:46.979Z,9.89
2023-05-05T09:33:14.398Z,9.86
2023-05-05T09:35:55.577Z,9.97
2023-05-05T09:38:23.880Z,9.67
2023-05-05T09:40:52.830Z,9.86
2023-05-05T09:43:22.109Z,9.74
2023-05-05T09:45:49.434Z,9.93
2023-05-05T09:48:30.929Z,9.73
2023-05-05T09:50:58.958Z,9.99
2023-05-05T09:53:27.203Z,9.99
2023-05-05T09:55:58.449Z,10.07
2023-05-05T09:58:27.020Z,9.98
2023-05-05T10:00:55.874Z,10.13
2023-05-05T10:03:23.398Z,10.07
2023-05-05T10:05:52.199Z,9.94
2023-05-05T10:08:26.674Z,9.95
2023-05-05T10:10:54.358Z,9.93
2023-05-05T10:13:22.679Z,10.05
2023-05-05T10:15:51.656Z,9.87
2023-05-05T10:18:31.841Z,9.93
2023-05-05T10:21:00.747Z,10.05
2023-05-05T10:23:45.904Z,9.86
2023-05-05T10:26:14.800Z,10.12
2023-05-05T10:28:50.513Z,9.88
2023-05-05T10:31:25.651Z,9.74
2023-05-05T10:33:59.512Z,9.69
2023-05-05T10:36:28.046Z,9.85
2023-05-05T10:38:56.962Z,9.24
2023-05-05T10:41:24.709Z,9.34
2023-05-05T10:43:53.241Z,9.45
2023-05-05T10:46:20.006Z,9.47
2023-05-05T10:48:56.817Z,9.63
2023-05-05T10:51:38.398Z,9.28
2023-05-05T10:54:10.645Z,9.46
2023-05-05T10:56:41.297Z,9.62
2023-05-05T10:59:32.914Z,9.88
2023-05-05T11:01:59.655Z,9.93
2023-05-05T11:04:26.551Z,9.61
2023-05-05T11:07:10.265Z,9.77
2023-05-05T11:09:55.162Z,9.52
2023-05-05T11:12:21.685Z,9.88
2023-05-05T11:14:48.456Z,9.63
2023-05-05T11:17:47.006Z,9.85
2023-05-05T11:20:13.957Z,9.75
2023-05-05T11:23:19.266Z,9.71
2023-05-05T11:25:47.198Z,9.83
2023-05-05T11:28:16.743Z,9.69
2023-05-05T11:30:58.869Z,9.88
2023-05-05T11:33:30.340Z,9.77
2023-05-05T11:36:09.747Z,9.76
2023-05-05T11:38:36.353Z,9.65
2023-05-05T11:41:13.162Z,9.56
2023-05-05T11:43:41.842Z,9.71
2023-05-05T11:46:16.995Z,9.77
2023-05-05T11:48:47.388Z,9.76
2023-05-05T11:51:15.167Z,9.79
2023-05-05T11:53:49.329Z,9.79
2023-05-05T11:56:21.897Z,10.03
2023-05-05T11:58:49.531Z,9.85
2023-05-05T12:01:16.904Z,9.37
2023-05-05T12:03:45.674Z,9.54
2023-05-05T12:06:13.365Z,9.77
2023-05-05T12:08:41.169Z,9.72
2023-05-05T12:11:09.997Z,9.30
2023-05-05T12:13:36.819Z,9.45
2023-05-05T12:16:10.448Z,9.75
2023-05-05T12:18:37.550Z,9.52
2023-05-05T12:21:18.019Z,9.60
2023-05-05T12:23:45.039Z,9.60
2023-05-05T12:26:28.876Z,9.65
2023-05-05T12:28:59.246Z,9.74
2023-05-05T12:31:39.877Z,9.66
2023-05-05T12:34:09.861Z,9.43
2023-05-05T12:36:37.400Z,9.55
2023-05-05T12:39:08.285Z,9.51
2023-05-05T12:41:35.033Z,9.43
2023-05-05T12:44:05.487Z,9.45
2023-05-05T12:46:48.034Z,9.61
2023-05-05T12:49:14.926Z,9.48
2023-05-05T12:51:54.256Z,9.53
2023-05-05T12:54:21.252Z,9.50
2023-05-05T12:56:48.256Z,9.62
2023-05-05T12:59:21.015Z,9.72
2023-05-05T13:02:00.059Z,9.79
2023-05-05T13:04:28.151Z,9.29
2023-05-05T13:07:12.882Z,9.47
2023-05-05T13:09:40.035Z,9.55
2023-05-05T13:12:14.090Z,9.64
2023-05-05T13:14:41.634Z,9.35
2023-05-05T13:17:08.893Z,9.49
2023-05-05T13:19:41.875Z,9.13
2023-05-05T13:22:10.203Z,9.18
2023-05-05T13:24:49.554Z,9.72
2023-05-05T13:27:18.081Z,9.44
2023-05-05T13:29:44.703Z,9.54
2023-05-05T13:32:11.707Z,9.71
2023-05-05T13:34:39.346Z,9.46
2023-05-05T13:37:06.487Z,9.55
2023-05-05T13:39:33.239Z,9.69
2023-05-05T13:41:59.901Z,9.81
2023-05-05T13:44:26.536Z,9.76
2023-05-05T13:46:53.232Z,9.46
2023-05-05T13:49:20.491Z,9.26
2023-05-05T13:51:47.355Z,9.47
2023-05-05T13:54:14.118Z,9.56
2023-05-05T13:56:41.090Z,9.79
2023-05-05T13:59:07.820Z,9.84
2023-05-05T14:01:34.654Z,9.97
2023-05-05T14:04:04.499Z,9.79
2023-05-05T14:06:32.742Z,9.64
2023-05-05T14:08:59.763Z,9.75
2023-05-05T14:11:26.458Z,9.53
2023-05-05T14:13:53.349Z,9.74
2023-05-05T14:16:20.168Z,9.51
2023-05-05T14:18:46.919Z,9.70
2023-05-05T14:21:13.629Z,9.74
2023-05-05T14:23:40.397Z,9.62
2023-05-05T14:26:09.194Z,9.43
2023-05-05T14:28:35.996Z,9.55
2023-05-05T14:31:02.647Z,9.66
2023-05-05T14:33:29.349Z,9.69
2023-05-05T14:35:56.099Z,9.79
2023-05-05T14:38:22.875Z,9.78
2023-05-05T14:40:49.616Z,9.88
2023-05-05T14:43:16.275Z,9.66
2023-05-05T14:45:44.318Z,9.65
2023-05-05T14:48:11.288Z,9.95
2023-05-05T14:50:39.952Z,9.39
2023-05-05T14:53:06.666Z,9.59
2023-05-05T14:55:33.371Z,9.46
2023-05-05T14:58:00.037Z,9.48
2023-05-05T15:00:27.025Z,9.54
2023-05-05T15:02:53.864Z,9.67
2023-05-05T15:05:20.587Z,9.58
2023-05-05T15:07:47.268Z,9.48
2023-05-05T15:10:13.985Z,9.29
2023-05-05T15:12:40.769Z,9.58
2023-05-05T15:15:08.764Z,9.60
2023-05-05T15:17:37.629Z,9.57
2023-05-05T15:20:08.213Z,9.49
2023-05-05T15:22:36.438Z,9.63
2023-05-05T15:25:03.309Z,9.43
2023-05-05T15:27:31.716Z,9.18
2023-05-05T15:29:58.498Z,9.43
2023-05-05T15:32:25.330Z,9.43
2023-05-05T15:34:52.040Z,9.54
2023-05-05T15:37:18.682Z,9.43
2023-05-05T15:39:45.425Z,9.37
2023-05-05T15:42:12.187Z,9.22
2023-05-05T15:44:38.928Z,9.36
2023-05-05T15:47:06.965Z,9.36
2023-05-05T15:49:33.699Z,9.47
2023-05-05T15:52:00.835Z,9.44
2023-05-05T15:54:27.566Z,8.91
2023-05-05T15:56:54.344Z,9.01
2023-05-05T15:59:21.098Z,9.57
2023-05-05T16:01:47.932Z,9.39
2023-05-05T16:04:14.737Z,9.47
2023-05-05T16:06:41.488Z,9.43
2023-05-05T16:09:08.276Z,9.26
2023-05-05T16:11:35.503Z,9.29
2023-05-05T16:14:02.330Z,9.45
2023-05-05T16:16:29.214Z,9.20
2023-05-05T16:18:55.939Z,9.28
2023-05-05T16:21:22.660Z,9.48
2023-05-05T16:23:49.359Z,9.21
2023-05-05T16:26:16.016Z,9.44
2023-05-05T16:28:42.923Z,9.25
2023-05-05T16:31:11.046Z,9.34
2023-05-05T16:33:43.533Z,9.49
2023-05-05T16:36:14.610Z,9.56
2023-05-05T16:38:41.672Z,9.55
2023-05-05T16:41:08.368Z,9.19
2023-05-05T16:43:37.274Z,9.45
2023-05-05T16:46:04.319Z,9.56
2023-05-05T16:48:31.284Z,9.21
2023-05-05T16:50:58.191Z,9.32
2023-05-05T16:53:25.195Z,9.33
2023-05-05T16:55:52.993Z,9.62
2023-05-05T16:58:20.996Z,9.68
2023-05-05T17:00:49.167Z,9.30
2023-05-05T17:03:17.159Z,9.24
2023-05-05T17:05:45.501Z,9.09
2023-05-05T17:08:14.738Z,9.45
2023-05-05T17:10:42.475Z,9.51
2023-05-05T17:13:14.110Z,9.51
2023-05-05T17:15:41.614Z,9.40
2023-05-05T17:18:08.860Z,9.18
2023-05-05T17:20:36.486Z,9.51
2023-05-05T17:23:03.380Z,9.35
2023-05-05T17:25:30.063Z,9.36
2023-05-05T17:27:57.630Z,9.20
2023-05-05T17:30:24.488Z,9.01
2023-05-05T17:32:51.212Z,9.20
2023-05-05T17:35:18.045Z,9.11
2023-05-05T17:37:44.697Z,9.23
2023-05-05T17:40:11.564Z,9.47
2023-05-05T17:42:39.084Z,9.24
2023-05-05T17:45:06.630Z,9.19
2023-05-05T17:47:33.813Z,9.12
2023-05-05T17:50:00.853Z,9.11
2023-05-05T17:52:27.605Z,9.24
2023-05-05T17:54:54.322Z,9.27
2023-05-05T17:57:21.134Z,9.10
2023-05-05T17:59:49.692Z,9.61
2023-05-05T18:02:17.092Z,9.66
2023-05-05T18:04:43.979Z,9.45
2023-05-05T18:07:12.307Z,9.29
2023-05-05T18:09:39.233Z,9.13
2023-05-05T18:12:07.017Z,8.97
2023-05-05T18:14:34.251Z,9.00
2023-05-05T18:17:01.387Z,8.98
2023-05-05T18:19:28.202Z,9.00
2023-05-05T18:21:54.885Z,9.18
2023-05-05T18:24:21.622Z,8.96
2023-05-05T18:26:50.727Z,9.05
2023-05-05T18:29:24.397Z,8.97
2023-05-05T18:31:53.224Z,9.01
2023-05-05T18:34:21.120Z,9.34
2023-05-05T18:36:48.377Z,9.19
2023-05-05T18:39:15.317Z,9.31
2023-05-05T18:41:42.047Z,9.00
2023-05-05T18:44:08.732Z,9.36
2023-05-05T18:46:35.512Z,9.12
2023-05-05T18:49:02.495Z,9.30
2023-05-05T18:51:29.211Z,8.89
2023-05-05T18:53:55.957Z,9.12
2023-05-05T18:56:22.710Z,9.24
2023-05-05T18:58:49.485Z,9.33
2023-05-05T19:01:16.627Z,9.60
2023-05-05T19:03:47.858Z,9.46
2023-05-05T19:06:15.008Z,9.50
2023-05-05T19:08:42.808Z,9.44
2023-05-05T19:11:09.833Z,9.23
2023-05-05T19:16:03.314Z,9.24
2023-05-05T19:18:30.044Z,9.54
2023-05-05T19:20:56.685Z,9.34
2023-05-05T19:23:23.529Z,9.47
2023-05-05T19:25:53.607Z,9.64
2023-05-05T19:28:20.291Z,9.58
2023-05-05T19:30:48.914Z,9.59
2023-05-05T19:33:16.488Z,9.66
2023-05-05T19:35:44.084Z,9.68
2023-05-05T19:38:10.958Z,9.51
2023-05-05T19:40:39.087Z,9.55
2023-05-05T19:43:06.034Z,9.64
2023-05-05T19:45:33.883Z,9.46
2023-05-05T19:48:03.753Z,9.47
2023-05-05T19:50:31.646Z,9.47
2023-05-05T19:52:58.495Z,9.47
2023-05-05T19:55:25.716Z,9.59
2023-05-05T19:57:52.497Z,9.39
2023-05-05T20:00:19.903Z,9.26
2023-05-05T20:02:48.655Z,9.57
2023-05-05T20:05:17.329Z,9.78
2023-05-05T20:07:46.414Z,9.37
2023-05-05T20:10:13.569Z,9.32
2023-05-05T20:12:47.601Z,9.80
2023-05-05T20:15:19.435Z,9.76
2023-05-05T20:17:47.528Z,9.50
2023-05-05T20:20:21.979Z,9.62
2023-05-05T20:22:49.399Z,9.47
2023-05-05T20:25:16.465Z,9.35
2023-05-05T20:27:43.842Z,9.66
2023-05-05T20:30:12.253Z,9.33
2023-05-05T20:32:39.158Z,9.62
2023-05-05T20:35:06.449Z,9.81
2023-05-05T20:37:33.243Z,9.77
2023-05-05T20:40:00.058Z,9.54
2023-05-05T20:42:27.921Z,9.34
2023-05-05T20:44:54.779Z,9.42
2023-05-05T20:47:21.466Z,9.54
2023-05-05T20:49:48.211Z,9.31
2023-05-05T20:52:14.940Z,9.63
2023-05-05T20:54:41.738Z,9.61
2023-05-05T20:57:08.489Z,9.75
2023-05-05T20:59:35.213Z,9.65
2023-05-05T21:02:01.970Z,9.79
2023-05-05T21:04:28.755Z,9.61
2023-05-05T21:06:57.459Z,9.70
2023-05-05T21:09:24.326Z,9.70
2023-05-05T21:11:51.109Z,9.54
2023-05-05T21:14:17.928Z,9.85
2023-05-05T21:16:44.690Z,9.89
2023-05-05T21:19:11.533Z,9.74
2023-05-05T21:21:38.441Z,9.82
2023-05-05T21:24:07.659Z,9.71
2023-05-05T21:26:34.661Z,9.77
2023-05-05T21:29:01.568Z,9.85
2023-05-05T21:31:28.352Z,9.83
2023-05-05T21:33:55.078Z,9.84
2023-05-05T21:36:22.134Z,10.08
2023-05-05T21:38:49.594Z,10.04
2023-05-05T21:41:16.963Z,10.04
2023-05-05T21:43:43.836Z,9.85
2023-05-05T21:46:10.664Z,9.80
2023-05-05T21:48:39.162Z,10.05
2023-05-05T21:51:06.937Z,10.04
2023-05-05T21:53:33.774Z,9.98
2023-05-05T21:56:01.134Z,10.11
2023-05-05T21:58:27.904Z,9.92
2023-05-05T22:00:57.932Z,9.73
2023-05-05T22:03:24.795Z,9.91
2023-05-05T22:05:52.026Z,9.99
2023-05-05T22:08:19.705Z,9.99
2023-05-05T22:10:46.872Z,9.96
2023-05-05T22:13:14.656Z,9.95
2023-05-05T22:15:46.680Z,10.08
2023-05-05T22:18:14.248Z,10.18
2023-05-05T22:20:41.026Z,10.01
2023-05-05T22:23:07.706Z,9.82
2023-05-05T22:25:34.442Z,9.76
2023-05-05T22:28:01.208Z,9.89
2023-05-05T22:30:28.028Z,10.20
2023-05-05T22:32:55.278Z,10.15
2023-05-05T22:35:22.092Z,9.72
2023-05-05T22:37:48.822Z,10.10
2023-05-05T22:40:15.703Z,10.10
2023-05-05T22:42:42.453Z,10.10
2023-05-05T22:45:09.728Z,9.94
2023-05-05T22:47:36.941Z,9.99
2023-05-05T22:50:03.752Z,9.65
2023-05-05T22:52:33.271Z,10.16
2023-05-05T22:54:59.982Z,9.99
2023-05-05T22:57:26.606Z,9.92
2023-05-05T22:59:53.352Z,10.11
2023-05-05T23:02:27.067Z,9.91
2023-05-05T23:04:53.835Z,9.99
2023-05-05T23:07:20.738Z,10.04
2023-05-05T23:09:48.102Z,9.86
2023-05-05T23:12:16.960Z,10.20
2023-05-05T23:14:43.980Z,10.27
2023-05-05T23:17:10.809Z,10.09
2023-05-05T23:19:37.813Z,10.16
2023-05-05T23:22:05.014Z,10.30
2023-05-05T23:24:31.782Z,10.05
2023-05-05T23:26:59.778Z,10.17
2023-05-05T23:29:26.629Z,10.40
2023-05-05T23:31:53.422Z,10.35
2023-05-05T23:34:20.165Z,10.19
2023-05-05T23:36:46.857Z,10.22
2023-05-05T23:39:13.611Z,10.35
2023-05-05T23:41:40.268Z,9.87
2023-05-05T23:44:07.212Z,9.69
2023-05-05T23:46:34.074Z,10.38
2023-05-05T23:49:00.833Z,10.24
2023-05-05T23:51:27.489Z,10.00
2023-05-05T23:53:56.681Z,10.33
2023-05-05T23:56:24.514Z,10.13
2023-05-05T23:58:52.536Z,10.33
